Terminal Aerodrome Forecast
Issued by NWS Buffalo, NY

Home | Current Version | Previous Version | Text Only | Print | Product List | Glossary On
Versions: 1 2 3 4 5 6 7 8 9 10 11 12 13 14 15 16 17 18 19 20 21 22 23 24
000
FTUS41 KBUF 011100 CCA
TAFROC
TAF COR
KROC 011134Z 0112/0212 21004KT 2SM -SN OVC025
      TEMPO 0112/0115 1SM -SN BKN020
     FM011500 19007KT 1 1/2SM -SN OVC020
     FM011800 19006KT 3SM -SN OVC015
     FM020000 35004KT 4SM -SN OVC012
     FM020900 27010G19KT 5SM -SHSN OVC020=

USA.gov is the U.S. government's official web portal to all federal, state and local government web resources and services.